createdAt,value
2022-10-16T00:00:13.594Z,15.73
2022-10-16T00:03:11.194Z,15.84
2022-10-16T00:06:08.828Z,15.72
2022-10-16T00:09:05.747Z,15.68
2022-10-16T00:12:04.925Z,15.74
2022-10-16T00:15:01.744Z,15.75
2022-10-16T00:17:59.699Z,15.78
2022-10-16T00:20:56.916Z,15.76
2022-10-16T00:24:12.961Z,15.75
2022-10-16T00:27:09.921Z,15.59
2022-10-16T00:30:09.285Z,15.72
2022-10-16T00:33:06.983Z,15.90
2022-10-16T00:36:04.641Z,16.02
2022-10-16T00:39:02.904Z,16.02
2022-10-16T00:42:00.594Z,15.84
2022-10-16T00:44:58.103Z,15.87
2022-10-16T00:47:55.301Z,15.79
2022-10-16T00:50:52.583Z,15.72
2022-10-16T00:53:49.804Z,15.55
2022-10-16T00:56:46.958Z,15.48
2022-10-16T00:59:43.604Z,14.91
2022-10-16T01:02:40.292Z,14.37
2022-10-16T01:05:45.086Z,14.18
2022-10-16T01:09:13.541Z,13.97
2022-10-16T01:12:12.576Z,13.97
2022-10-16T01:15:21.691Z,14.07
2022-10-16T01:18:45.543Z,13.89
2022-10-16T01:21:44.627Z,14.00
2022-10-16T01:24:49.992Z,14.06
2022-10-16T01:27:47.814Z,13.94
2022-10-16T01:30:44.904Z,13.87
2022-10-16T01:33:44.199Z,13.96
2022-10-16T01:36:43.732Z,14.18
2022-10-16T01:39:41.081Z,14.44
2022-10-16T01:42:40.471Z,14.37
2022-10-16T01:45:37.814Z,14.57
2022-10-16T01:48:34.856Z,14.34
2022-10-16T01:51:31.990Z,14.13
2022-10-16T01:54:28.914Z,14.09
2022-10-16T01:57:26.796Z,13.88
2022-10-16T02:00:23.741Z,13.92
2022-10-16T02:03:20.656Z,13.92
2022-10-16T02:06:17.509Z,14.11
2022-10-16T02:09:17.896Z,14.25
2022-10-16T02:12:25.760Z,14.19
2022-10-16T02:15:22.755Z,13.93
2022-10-16T02:18:19.979Z,14.03
2022-10-16T02:21:20.344Z,13.84
2022-10-16T02:24:28.411Z,13.80
2022-10-16T02:27:37.991Z,13.77
2022-10-16T02:30:36.458Z,13.69
2022-10-16T02:33:33.423Z,13.74
2022-10-16T02:36:30.837Z,13.87
2022-10-16T02:39:30.754Z,13.69
2022-10-16T02:42:34.634Z,13.80
2022-10-16T02:45:31.749Z,13.80
2022-10-16T02:48:28.612Z,13.72
2022-10-16T02:51:25.535Z,13.84
2022-10-16T02:54:22.588Z,13.84
2022-10-16T02:57:20.134Z,13.95
2022-10-16T03:00:17.514Z,13.94
2022-10-16T03:03:14.826Z,14.24
2022-10-16T03:06:12.056Z,14.43
2022-10-16T03:09:09.002Z,14.41
2022-10-16T03:12:06.743Z,14.16
2022-10-16T03:15:04.656Z,14.08
2022-10-16T03:18:02.052Z,14.22
2022-10-16T03:20:58.785Z,14.50
2022-10-16T03:23:55.723Z,14.65
2022-10-16T03:26:52.891Z,14.57
2022-10-16T03:29:50.060Z,14.65
2022-10-16T03:32:46.880Z,14.71
2022-10-16T03:35:43.762Z,14.81
2022-10-16T03:38:40.916Z,14.58
2022-10-16T03:41:37.859Z,14.81
2022-10-16T03:44:35.285Z,14.81
2022-10-16T03:47:34.110Z,14.68
2022-10-16T03:50:30.928Z,14.48
2022-10-16T03:53:28.063Z,14.56
2022-10-16T03:56:25.002Z,14.63
2022-10-16T03:59:22.035Z,14.82
2022-10-16T04:02:18.960Z,14.98
2022-10-16T04:05:15.890Z,14.98
2022-10-16T04:08:12.761Z,14.94
2022-10-16T04:11:10.099Z,15.14
2022-10-16T04:14:07.204Z,15.15
2022-10-16T04:17:03.946Z,15.19
2022-10-16T04:20:00.816Z,15.21
2022-10-16T04:22:58.167Z,15.13
2022-10-16T04:25:55.131Z,14.99
2022-10-16T04:28:52.047Z,15.11
2022-10-16T04:31:48.905Z,14.99
2022-10-16T04:34:45.733Z,14.62
2022-10-16T04:37:42.501Z,14.35
2022-10-16T04:40:40.016Z,14.42
2022-10-16T04:43:38.167Z,14.57
2022-10-16T04:46:34.747Z,14.65
2022-10-16T04:49:32.053Z,14.56
2022-10-16T04:52:29.242Z,14.55
2022-10-16T04:55:25.741Z,14.83
2022-10-16T04:58:22.862Z,15.00
2022-10-16T05:01:20.055Z,15.07
2022-10-16T05:04:16.876Z,15.19
2022-10-16T05:07:13.972Z,15.16
2022-10-16T05:10:10.922Z,15.22
2022-10-16T05:13:07.801Z,15.24
2022-10-16T05:16:04.907Z,15.28
2022-10-16T05:19:26.366Z,15.29
2022-10-16T05:22:18.860Z,15.22
2022-10-16T05:25:16.358Z,14.96
2022-10-16T05:28:13.909Z,14.88
2022-10-16T05:31:11.049Z,15.17
2022-10-16T05:34:07.877Z,15.28
2022-10-16T05:37:04.887Z,15.24
2022-10-16T05:40:01.756Z,14.87
2022-10-16T05:42:59.534Z,15.17
2022-10-16T05:46:01.210Z,15.15
2022-10-16T05:48:58.003Z,15.08
2022-10-16T05:51:54.739Z,15.35
2022-10-16T05:54:52.067Z,15.36
2022-10-16T05:57:48.988Z,15.15
2022-10-16T06:00:45.778Z,15.15
2022-10-16T06:03:43.146Z,15.09
2022-10-16T06:06:40.127Z,15.18
2022-10-16T06:09:36.987Z,15.15
2022-10-16T06:12:34.088Z,15.18
2022-10-16T06:15:31.029Z,15.17
2022-10-16T06:18:28.586Z,15.22
2022-10-16T06:21:26.387Z,15.33
2022-10-16T06:24:23.835Z,15.40
2022-10-16T06:27:21.237Z,15.33
2022-10-16T06:30:17.865Z,15.21
2022-10-16T06:33:15.195Z,15.00
2022-10-16T06:36:14.880Z,15.03
2022-10-16T06:39:12.048Z,15.03
2022-10-16T06:42:09.233Z,15.25
2022-10-16T06:45:07.389Z,15.25
2022-10-16T06:48:04.818Z,15.42
2022-10-16T06:51:08.154Z,15.23
2022-10-16T06:54:05.444Z,15.20
2022-10-16T06:57:02.845Z,15.31
2022-10-16T07:00:00.168Z,15.47
2022-10-16T07:02:57.198Z,15.30
2022-10-16T07:05:54.022Z,15.29
2022-10-16T07:08:51.009Z,15.28
2022-10-16T07:11:47.799Z,15.21
2022-10-16T07:14:45.211Z,15.41
2022-10-16T07:17:41.908Z,15.49
2022-10-16T07:20:39.051Z,15.67
2022-10-16T07:23:36.214Z,15.70
2022-10-16T07:26:35.632Z,15.85
2022-10-16T07:29:33.352Z,15.68
2022-10-16T07:32:31.111Z,15.84
2022-10-16T07:35:31.612Z,16.06
2022-10-16T07:38:29.038Z,16.07
2022-10-16T07:41:26.156Z,16.22
2022-10-16T07:44:23.080Z,16.28
2022-10-16T07:47:20.032Z,16.12
2022-10-16T07:50:16.900Z,15.94
2022-10-16T07:53:14.388Z,16.05
2022-10-16T07:56:11.100Z,16.10
2022-10-16T07:59:08.346Z,16.11
2022-10-16T08:02:05.443Z,16.30
2022-10-16T08:05:02.927Z,16.23
2022-10-16T08:08:00.540Z,16.27
2022-10-16T08:10:58.151Z,16.26
2022-10-16T08:13:54.924Z,16.52
2022-10-16T08:16:52.129Z,16.87
2022-10-16T08:19:49.096Z,16.96
2022-10-16T08:22:45.937Z,16.84
2022-10-16T08:25:42.979Z,16.76
2022-10-16T08:28:40.114Z,16.73
2022-10-16T08:31:37.044Z,16.66
2022-10-16T08:34:34.038Z,16.73
2022-10-16T08:37:32.098Z,17.02
2022-10-16T08:40:33.114Z,16.89
2022-10-16T08:43:36.925Z,17.01
2022-10-16T08:47:04.487Z,17.10
2022-10-16T08:50:06.968Z,17.05
2022-10-16T08:53:05.067Z,17.02
2022-10-16T08:56:02.233Z,16.98
2022-10-16T08:59:01.571Z,17.17
2022-10-16T09:02:00.292Z,17.23
2022-10-16T09:05:07.138Z,17.07
2022-10-16T09:08:09.184Z,17.15
2022-10-16T09:11:47.079Z,17.23
2022-10-16T09:14:59.197Z,17.29
2022-10-16T09:18:16.135Z,17.26
2022-10-16T09:21:41.053Z,17.05
2022-10-16T09:24:38.203Z,17.22
2022-10-16T09:27:35.108Z,17.46
2022-10-16T09:30:33.193Z,17.50
2022-10-16T09:33:31.807Z,17.56
2022-10-16T09:36:29.492Z,17.30
2022-10-16T09:39:26.530Z,17.28
2022-10-16T09:42:35.880Z,17.40
2022-10-16T09:45:33.092Z,17.46
2022-10-16T09:48:38.910Z,17.45
2022-10-16T09:51:37.735Z,17.41
2022-10-16T09:54:35.233Z,17.43
2022-10-16T09:57:32.147Z,17.32
2022-10-16T10:00:29.104Z,17.75
2022-10-16T10:03:44.229Z,17.91
2022-10-16T10:06:48.751Z,17.94
2022-10-16T10:09:46.362Z,17.88
2022-10-16T10:12:43.405Z,18.20
2022-10-16T10:15:42.684Z,18.28
2022-10-16T10:18:40.303Z,18.37
2022-10-16T10:21:39.279Z,18.29
2022-10-16T10:24:36.015Z,18.56
2022-10-16T10:27:56.347Z,18.55
2022-10-16T10:31:04.583Z,18.51
2022-10-16T10:34:01.873Z,18.43
2022-10-16T10:37:25.236Z,18.49
2022-10-16T10:40:36.095Z,18.34
2022-10-16T10:44:18.122Z,18.45
2022-10-16T10:47:34.125Z,18.97
2022-10-16T10:50:50.907Z,18.99
2022-10-16T10:53:50.618Z,18.89
2022-10-16T10:56:57.360Z,18.82
2022-10-16T10:59:57.222Z,18.98
2022-10-16T11:03:21.789Z,19.07
2022-10-16T11:06:25.682Z,19.60
2022-10-16T11:09:25.864Z,20.11
2022-10-16T11:12:45.259Z,20.25
2022-10-16T11:15:42.547Z,20.71
2022-10-16T11:19:10.832Z,21.52
2022-10-16T11:22:26.843Z,21.12
2022-10-16T11:25:31.623Z,20.74
2022-10-16T11:28:47.299Z,20.43
2022-10-16T11:31:53.799Z,20.46
2022-10-16T11:35:03.803Z,20.34
2022-10-16T11:38:01.015Z,20.26
2022-10-16T11:41:20.551Z,20.18
2022-10-16T11:44:22.479Z,20.57
2022-10-16T11:51:37.013Z,20.27
2022-10-16T11:54:49.470Z,20.35
2022-10-16T11:57:58.552Z,20.10
2022-10-16T12:00:57.671Z,19.92
2022-10-16T12:03:58.229Z,20.07
2022-10-16T12:07:09.821Z,19.70
2022-10-16T12:10:27.606Z,20.14
2022-10-16T12:13:28.060Z,20.26
2022-10-16T12:16:25.424Z,20.39
2022-10-16T12:19:23.141Z,19.75
2022-10-16T12:22:20.327Z,19.80
2022-10-16T12:25:25.720Z,19.86
2022-10-16T12:28:26.703Z,20.25
2022-10-16T12:31:25.277Z,20.58
2022-10-16T12:34:44.024Z,20.88
2022-10-16T12:37:41.499Z,20.14
2022-10-16T12:40:39.116Z,20.21
2022-10-16T12:43:40.068Z,20.23
2022-10-16T12:46:39.928Z,20.25
2022-10-16T12:49:39.160Z,20.19
2022-10-16T12:52:38.861Z,20.06
2022-10-16T12:55:44.623Z,20.19
2022-10-16T12:58:52.964Z,19.96
2022-10-16T13:02:19.337Z,19.80
2022-10-16T13:05:30.662Z,19.79
2022-10-16T13:08:31.274Z,19.92
2022-10-16T13:11:39.981Z,20.06
2022-10-16T13:15:08.863Z,20.10
2022-10-16T13:18:24.511Z,21.10
2022-10-16T13:21:38.132Z,20.94
2022-10-16T13:24:43.859Z,19.97
2022-10-16T13:27:57.545Z,19.83
2022-10-16T13:30:55.261Z,19.71
2022-10-16T13:33:56.661Z,19.66
2022-10-16T13:36:53.949Z,19.31
2022-10-16T13:39:54.036Z,19.30
2022-10-16T13:42:52.134Z,19.43
2022-10-16T13:45:56.830Z,19.50
2022-10-16T13:49:12.603Z,19.46
2022-10-16T13:52:20.769Z,19.55
2022-10-16T13:55:19.443Z,19.59
2022-10-16T13:58:16.180Z,19.74
2022-10-16T14:01:28.561Z,19.92
2022-10-16T14:04:30.847Z,19.85
2022-10-16T14:07:32.712Z,19.64
2022-10-16T14:10:33.360Z,19.67
2022-10-16T14:13:35.611Z,20.02
2022-10-16T14:16:33.089Z,20.23
2022-10-16T14:19:31.008Z,20.24
2022-10-16T14:22:30.637Z,20.31
2022-10-16T14:25:31.744Z,20.05
2022-10-16T14:28:29.206Z,20.17
2022-10-16T14:31:33.706Z,20.31
2022-10-16T14:34:55.805Z,20.41
2022-10-16T14:37:54.702Z,20.34
2022-10-16T14:40:52.021Z,20.18
2022-10-16T14:43:54.348Z,19.93
2022-10-16T14:46:51.116Z,19.78
2022-10-16T14:49:48.465Z,19.97
2022-10-16T14:52:45.191Z,20.05
2022-10-16T14:55:42.890Z,20.11
2022-10-16T14:58:40.597Z,20.30
2022-10-16T15:01:37.308Z,20.38
2022-10-16T15:04:34.189Z,20.32
2022-10-16T15:07:31.505Z,20.29
2022-10-16T15:10:29.000Z,20.40
2022-10-16T15:13:26.741Z,20.55
2022-10-16T15:16:23.647Z,20.50
2022-10-16T15:19:20.329Z,20.34
2022-10-16T15:22:17.099Z,20.49
2022-10-16T15:25:26.779Z,20.67
2022-10-16T15:28:25.039Z,20.68
2022-10-16T15:31:23.456Z,20.76
2022-10-16T15:34:20.774Z,20.70
2022-10-16T15:37:20.034Z,20.73
2022-10-16T15:40:18.387Z,20.73
2022-10-16T15:43:15.609Z,20.72
2022-10-16T15:46:13.381Z,20.48
2022-10-16T15:49:10.806Z,20.26
2022-10-16T15:52:08.319Z,20.24
2022-10-16T15:55:08.865Z,20.35
2022-10-16T15:58:06.547Z,20.22
2022-10-16T16:01:04.574Z,19.90
2022-10-16T16:04:02.973Z,19.76
2022-10-16T16:07:04.611Z,19.77
2022-10-16T16:10:02.032Z,19.56
2022-10-16T16:13:00.198Z,19.22
2022-10-16T16:15:57.623Z,19.18
2022-10-16T16:18:54.466Z,19.11
2022-10-16T16:21:51.446Z,19.20
2022-10-16T16:24:48.291Z,19.21
2022-10-16T16:27:45.484Z,19.06
2022-10-16T16:30:42.523Z,18.85
2022-10-16T16:33:39.504Z,18.82
2022-10-16T16:36:36.610Z,18.96
2022-10-16T16:39:33.223Z,18.89
2022-10-16T16:42:30.725Z,18.70
2022-10-16T16:48:25.460Z,18.42
2022-10-16T16:51:22.961Z,18.39
2022-10-16T16:54:20.943Z,18.31
2022-10-16T16:57:21.276Z,17.94
2022-10-16T17:00:18.765Z,17.91
2022-10-16T17:03:15.422Z,17.83
2022-10-16T17:06:12.706Z,17.41
2022-10-16T17:09:10.573Z,17.25
2022-10-16T17:12:07.509Z,17.45
2022-10-16T17:15:05.067Z,17.69
2022-10-16T17:18:02.894Z,17.50
2022-10-16T17:21:01.318Z,17.39
2022-10-16T17:23:58.684Z,17.31
2022-10-16T17:26:55.595Z,17.29
2022-10-16T17:29:52.791Z,17.20
2022-10-16T17:32:49.535Z,17.09
2022-10-16T17:35:47.140Z,16.55
2022-10-16T17:38:44.632Z,17.05
2022-10-16T17:41:41.556Z,17.21
2022-10-16T17:44:38.892Z,16.64
2022-10-16T17:47:35.423Z,17.00
2022-10-16T17:50:32.391Z,17.07
2022-10-16T17:53:29.605Z,17.04
2022-10-16T17:56:26.577Z,16.91
2022-10-16T17:59:23.475Z,17.04
2022-10-16T18:02:20.504Z,17.19
2022-10-16T18:05:17.202Z,16.82
2022-10-16T18:08:14.726Z,16.49
2022-10-16T18:11:11.571Z,16.34
2022-10-16T18:14:08.683Z,16.50
2022-10-16T18:17:06.040Z,16.51
2022-10-16T18:20:05.226Z,16.49
2022-10-16T18:23:02.281Z,16.40
2022-10-16T18:29:02.724Z,16.35
2022-10-16T18:31:59.949Z,16.63
2022-10-16T18:34:57.636Z,16.93
2022-10-16T18:37:59.019Z,16.69
2022-10-16T18:40:57.400Z,16.45
2022-10-16T18:43:54.734Z,16.32
2022-10-16T18:46:52.643Z,15.96
2022-10-16T18:49:50.171Z,16.05
2022-10-16T18:52:48.822Z,16.18
2022-10-16T18:55:52.893Z,16.09
2022-10-16T18:58:50.334Z,16.34
2022-10-16T19:01:48.988Z,16.67
2022-10-16T19:04:46.562Z,16.15
2022-10-16T19:07:46.092Z,16.10
2022-10-16T19:10:43.883Z,16.20
2022-10-16T19:13:40.490Z,16.23
2022-10-16T19:16:38.176Z,16.27
2022-10-16T19:19:38.280Z,16.20
2022-10-16T19:22:52.753Z,15.94
2022-10-16T19:25:49.891Z,15.81
2022-10-16T19:28:46.597Z,15.95
2022-10-16T19:31:43.331Z,16.25
2022-10-16T19:34:40.695Z,15.98
2022-10-16T19:37:38.247Z,15.64
2022-10-16T19:40:35.360Z,15.97
2022-10-16T19:43:32.961Z,16.15
2022-10-16T19:46:30.384Z,15.95
2022-10-16T19:49:27.859Z,15.82
2022-10-16T19:52:25.306Z,15.98
2022-10-16T19:55:23.067Z,16.16
2022-10-16T19:58:20.620Z,16.45
2022-10-16T20:01:18.011Z,16.41
2022-10-16T20:04:15.631Z,16.19
2022-10-16T20:07:12.677Z,15.76
2022-10-16T20:10:09.846Z,15.59
2022-10-16T20:13:08.281Z,15.76
2022-10-16T20:16:06.118Z,15.96
2022-10-16T20:19:03.968Z,15.96
2022-10-16T20:22:01.235Z,16.00
2022-10-16T20:24:58.848Z,16.09
2022-10-16T20:27:55.869Z,16.64
2022-10-16T20:30:52.757Z,16.79
2022-10-16T20:33:50.601Z,16.89
2022-10-16T20:36:47.729Z,16.85
2022-10-16T20:39:44.793Z,16.31
2022-10-16T20:42:41.486Z,15.86
2022-10-16T20:45:38.808Z,15.80
2022-10-16T20:48:35.899Z,15.93
2022-10-16T20:51:32.797Z,15.72
2022-10-16T20:54:29.717Z,15.60
2022-10-16T20:57:26.752Z,15.53
2022-10-16T21:00:23.689Z,15.62
2022-10-16T21:03:20.404Z,15.61
2022-10-16T21:06:17.682Z,15.60
2022-10-16T21:09:15.030Z,15.45
2022-10-16T21:12:11.701Z,15.27
2022-10-16T21:15:14.915Z,14.91
2022-10-16T21:18:12.952Z,14.87
2022-10-16T21:21:10.965Z,14.93
2022-10-16T21:24:11.944Z,15.22
2022-10-16T21:27:11.890Z,15.49
2022-10-16T21:30:09.616Z,15.42
2022-10-16T21:33:06.797Z,15.49
2022-10-16T21:36:11.611Z,15.55
2022-10-16T21:39:13.039Z,15.53
2022-10-16T21:42:09.603Z,15.43
2022-10-16T21:45:06.777Z,15.31
2022-10-16T21:48:04.243Z,15.31
2022-10-16T21:51:01.689Z,15.19
2022-10-16T21:53:58.893Z,15.37
2022-10-16T21:56:56.988Z,15.92
2022-10-16T21:59:53.822Z,16.11
2022-10-16T22:02:51.070Z,16.02
2022-10-16T22:05:47.548Z,15.92
2022-10-16T22:08:45.959Z,15.77
2022-10-16T22:11:44.039Z,15.86
2022-10-16T22:14:41.041Z,15.65
2022-10-16T22:17:37.844Z,15.59
2022-10-16T22:20:34.625Z,15.65
2022-10-16T22:23:31.607Z,15.86
2022-10-16T22:26:28.490Z,16.11
2022-10-16T22:29:26.082Z,15.98
2022-10-16T22:32:22.969Z,15.90
2022-10-16T22:35:19.549Z,15.94
2022-10-16T22:38:16.640Z,16.04
2022-10-16T22:41:14.574Z,16.02
2022-10-16T22:44:12.709Z,15.92
2022-10-16T22:47:09.591Z,15.96
2022-10-16T22:50:07.559Z,16.04
2022-10-16T22:53:05.005Z,16.11
2022-10-16T22:56:01.635Z,16.04
2022-10-16T22:58:58.828Z,16.04
2022-10-16T23:01:55.803Z,16.06
2022-10-16T23:04:53.050Z,16.03
2022-10-16T23:07:50.030Z,15.95
2022-10-16T23:10:47.435Z,15.94
2022-10-16T23:13:47.835Z,15.94
2022-10-16T23:16:44.586Z,15.99
2022-10-16T23:19:41.574Z,16.10
2022-10-16T23:22:38.722Z,16.15
2022-10-16T23:25:35.962Z,16.36
2022-10-16T23:28:32.976Z,16.43
2022-10-16T23:31:29.761Z,16.56
2022-10-16T23:34:27.060Z,16.70
2022-10-16T23:37:24.094Z,16.67
2022-10-16T23:40:20.920Z,16.54
2022-10-16T23:43:17.555Z,16.48
2022-10-16T23:46:15.242Z,16.24
2022-10-16T23:49:12.913Z,15.93
2022-10-16T23:52:09.829Z,15.83
2022-10-16T23:55:07.388Z,15.78
2022-10-16T23:58:04.932Z,15.59
